sensor_id;sensor_type;location;lat;lon;timestamp;pressure;altitude;pressure_sealevel;temperature;humidity
55517;BME280;41724;51.176;-0.708;2023-03-15T00:00:24;100984.02;;;6.77;57.28
55517;BME280;41724;51.176;-0.708;2023-03-15T00:02:51;100983.34;;;6.91;57.11
55517;BME280;41724;51.176;-0.708;2023-03-15T00:05:19;100987.73;;;6.32;57.94
55517;BME280;41724;51.176;-0.708;2023-03-15T00:07:46;100989.08;;;6.42;58.43
55517;BME280;41724;51.176;-0.708;2023-03-15T00:10:13;100998.03;;;5.91;60.16
55517;BME280;41724;51.176;-0.708;2023-03-15T00:12:40;100999.66;;;5.72;61.21
55517;BME280;41724;51.176;-0.708;2023-03-15T00:15:09;101008.25;;;5.43;62.95
55517;BME280;41724;51.176;-0.708;2023-03-15T00:17:39;101013.92;;;4.77;64.50
55517;BME280;41724;51.176;-0.708;2023-03-15T00:20:07;101011.86;;;5.20;63.46
55517;BME280;41724;51.176;-0.708;2023-03-15T00:22:34;101011.90;;;5.69;62.68
55517;BME280;41724;51.176;-0.708;2023-03-15T00:25:02;101014.50;;;5.51;61.13
55517;BME280;41724;51.176;-0.708;2023-03-15T00:27:29;101020.89;;;6.40;61.04
55517;BME280;41724;51.176;-0.708;2023-03-15T00:29:56;101021.00;;;5.57;61.69
55517;BME280;41724;51.176;-0.708;2023-03-15T00:32:23;101019.28;;;5.76;61.11
55517;BME280;41724;51.176;-0.708;2023-03-15T00:34:50;101017.54;;;6.10;59.60
55517;BME280;41724;51.176;-0.708;2023-03-15T00:37:18;101022.37;;;6.31;59.37
55517;BME280;41724;51.176;-0.708;2023-03-15T00:39:45;101030.39;;;6.10;58.78
55517;BME280;41724;51.176;-0.708;2023-03-15T00:42:13;101035.34;;;5.53;60.81
55517;BME280;41724;51.176;-0.708;2023-03-15T00:44:41;101044.83;;;6.20;60.36
55517;BME280;41724;51.176;-0.708;2023-03-15T00:47:08;101046.03;;;5.84;60.06
55517;BME280;41724;51.176;-0.708;2023-03-15T00:49:36;101043.41;;;6.06;59.38
55517;BME280;41724;51.176;-0.708;2023-03-15T00:52:04;101041.48;;;6.11;59.00
55517;BME280;41724;51.176;-0.708;2023-03-15T00:54:31;101041.06;;;6.63;58.65
55517;BME280;41724;51.176;-0.708;2023-03-15T00:57:00;101046.24;;;6.23;59.74
55517;BME280;41724;51.176;-0.708;2023-03-15T00:59:29;101048.81;;;6.20;58.76
55517;BME280;41724;51.176;-0.708;2023-03-15T01:01:56;101046.19;;;5.92;59.65
55517;BME280;41724;51.176;-0.708;2023-03-15T01:04:24;101048.78;;;6.42;58.09
55517;BME280;41724;51.176;-0.708;2023-03-15T01:06:52;101046.20;;;6.05;58.45
55517;BME280;41724;51.176;-0.708;2023-03-15T01:09:20;101045.40;;;6.16;58.04
55517;BME280;41724;51.176;-0.708;2023-03-15T01:11:47;101043.60;;;6.19;57.90
55517;BME280;41724;51.176;-0.708;2023-03-15T01:14:14;101045.12;;;6.28;57.69
55517;BME280;41724;51.176;-0.708;2023-03-15T01:16:41;101055.67;;;6.20;56.98
55517;BME280;41724;51.176;-0.708;2023-03-15T01:19:10;101063.74;;;6.59;57.62
55517;BME280;41724;51.176;-0.708;2023-03-15T01:21:37;101061.92;;;6.08;57.25
55517;BME280;41724;51.176;-0.708;2023-03-15T01:24:04;101060.90;;;6.28;56.06
55517;BME280;41724;51.176;-0.708;2023-03-15T01:26:32;101062.69;;;6.21;56.52
55517;BME280;41724;51.176;-0.708;2023-03-15T01:28:59;101064.95;;;5.61;58.36
55517;BME280;41724;51.176;-0.708;2023-03-15T01:31:28;101063.38;;;6.01;57.42
55517;BME280;41724;51.176;-0.708;2023-03-15T01:33:57;101066.13;;;6.00;56.32
55517;BME280;41724;51.176;-0.708;2023-03-15T01:36:25;101067.41;;;6.43;55.43
55517;BME280;41724;51.176;-0.708;2023-03-15T01:38:52;101068.64;;;6.47;55.29
55517;BME280;41724;51.176;-0.708;2023-03-15T01:41:19;101073.94;;;6.21;55.80
55517;BME280;41724;51.176;-0.708;2023-03-15T01:43:47;101075.17;;;5.93;58.09
55517;BME280;41724;51.176;-0.708;2023-03-15T01:46:19;101074.86;;;5.50;57.03
55517;BME280;41724;51.176;-0.708;2023-03-15T01:48:50;101076.59;;;6.14;56.91
55517;BME280;41724;51.176;-0.708;2023-03-15T01:51:21;101077.82;;;5.69;55.77
55517;BME280;41724;51.176;-0.708;2023-03-15T01:53:52;101082.72;;;6.03;55.48
55517;BME280;41724;51.176;-0.708;2023-03-15T01:56:22;101087.34;;;6.02;55.39
55517;BME280;41724;51.176;-0.708;2023-03-15T01:58:52;101089.17;;;5.79;54.97
55517;BME280;41724;51.176;-0.708;2023-03-15T02:01:20;101096.82;;;6.17;55.51
55517;BME280;41724;51.176;-0.708;2023-03-15T02:03:52;101094.19;;;6.12;54.96
55517;BME280;41724;51.176;-0.708;2023-03-15T02:06:21;101090.87;;;5.75;54.25
55517;BME280;41724;51.176;-0.708;2023-03-15T02:08:52;101092.63;;;6.19;53.79
55517;BME280;41724;51.176;-0.708;2023-03-15T02:11:22;101097.01;;;5.46;54.41
55517;BME280;41724;51.176;-0.708;2023-03-15T02:13:52;101094.86;;;5.83;53.59
55517;BME280;41724;51.176;-0.708;2023-03-15T02:16:21;101095.64;;;5.67;54.15
55517;BME280;41724;51.176;-0.708;2023-03-15T02:18:49;101100.61;;;5.44;53.75
55517;BME280;41724;51.176;-0.708;2023-03-15T02:21:27;101103.44;;;5.40;54.61
55517;BME280;41724;51.176;-0.708;2023-03-15T02:24:03;101108.38;;;5.17;54.74
55517;BME280;41724;51.176;-0.708;2023-03-15T02:26:39;101106.70;;;5.22;54.99
55517;BME280;41724;51.176;-0.708;2023-03-15T02:29:09;101103.84;;;5.51;53.56
55517;BME280;41724;51.176;-0.708;2023-03-15T02:31:36;101096.31;;;5.34;53.09
55517;BME280;41724;51.176;-0.708;2023-03-15T02:34:05;101090.95;;;5.27;53.43
55517;BME280;41724;51.176;-0.708;2023-03-15T02:36:34;101090.07;;;5.37;53.86
55517;BME280;41724;51.176;-0.708;2023-03-15T02:39:12;101100.91;;;4.99;54.87
55517;BME280;41724;51.176;-0.708;2023-03-15T02:41:42;101103.72;;;4.74;54.27
55517;BME280;41724;51.176;-0.708;2023-03-15T02:44:14;101103.90;;;4.53;53.98
55517;BME280;41724;51.176;-0.708;2023-03-15T02:46:45;101110.41;;;4.84;53.90
55517;BME280;41724;51.176;-0.708;2023-03-15T02:49:14;101109.70;;;4.60;54.25
55517;BME280;41724;51.176;-0.708;2023-03-15T02:51:42;101112.40;;;4.70;54.60
55517;BME280;41724;51.176;-0.708;2023-03-15T02:54:09;101116.42;;;4.60;54.68
55517;BME280;41724;51.176;-0.708;2023-03-15T02:56:36;101118.18;;;4.51;55.01
55517;BME280;41724;51.176;-0.708;2023-03-15T02:59:04;101114.85;;;4.67;55.15
55517;BME280;41724;51.176;-0.708;2023-03-15T03:01:31;101114.67;;;4.50;54.63
55517;BME280;41724;51.176;-0.708;2023-03-15T03:03:58;101113.20;;;4.35;54.83
55517;BME280;41724;51.176;-0.708;2023-03-15T03:06:26;101118.95;;;4.66;55.07
55517;BME280;41724;51.176;-0.708;2023-03-15T03:08:54;101114.17;;;4.19;55.88
55517;BME280;41724;51.176;-0.708;2023-03-15T03:11:21;101110.45;;;4.18;54.92
55517;BME280;41724;51.176;-0.708;2023-03-15T03:13:49;101104.03;;;4.37;55.33
55517;BME280;41724;51.176;-0.708;2023-03-15T03:16:16;101107.68;;;4.56;54.70
55517;BME280;41724;51.176;-0.708;2023-03-15T03:18:44;101106.09;;;4.50;54.52
55517;BME280;41724;51.176;-0.708;2023-03-15T03:21:10;101102.77;;;4.24;55.26
55517;BME280;41724;51.176;-0.708;2023-03-15T03:23:39;101104.52;;;4.44;53.93
55517;BME280;41724;51.176;-0.708;2023-03-15T03:26:11;101106.36;;;4.33;54.83
55517;BME280;41724;51.176;-0.708;2023-03-15T03:28:39;101107.04;;;4.05;55.58
55517;BME280;41724;51.176;-0.708;2023-03-15T03:31:06;101115.42;;;3.67;56.45
55517;BME280;41724;51.176;-0.708;2023-03-15T03:33:40;101121.37;;;4.00;55.45
55517;BME280;41724;51.176;-0.708;2023-03-15T03:36:08;101129.01;;;4.19;55.00
55517;BME280;41724;51.176;-0.708;2023-03-15T03:38:35;101139.52;;;3.90;55.25
55517;BME280;41724;51.176;-0.708;2023-03-15T03:41:03;101145.50;;;4.20;54.40
55517;BME280;41724;51.176;-0.708;2023-03-15T03:43:30;101149.26;;;4.46;55.05
55517;BME280;41724;51.176;-0.708;2023-03-15T03:45:57;101152.24;;;4.16;54.53
55517;BME280;41724;51.176;-0.708;2023-03-15T03:48:24;101161.08;;;4.35;54.20
55517;BME280;41724;51.176;-0.708;2023-03-15T03:50:52;101175.32;;;3.85;54.52
55517;BME280;41724;51.176;-0.708;2023-03-15T03:53:19;101184.04;;;3.82;54.87
55517;BME280;41724;51.176;-0.708;2023-03-15T03:55:47;101184.69;;;3.90;54.80
55517;BME280;41724;51.176;-0.708;2023-03-15T03:58:14;101181.06;;;4.11;54.56
55517;BME280;41724;51.176;-0.708;2023-03-15T04:00:42;101179.82;;;3.75;54.75
55517;BME280;41724;51.176;-0.708;2023-03-15T04:03:09;101183.03;;;3.72;55.05
55517;BME280;41724;51.176;-0.708;2023-03-15T04:05:36;101186.39;;;2.82;57.71
55517;BME280;41724;51.176;-0.708;2023-03-15T04:08:04;101177.24;;;3.56;56.55
55517;BME280;41724;51.176;-0.708;2023-03-15T04:10:31;101166.05;;;3.84;55.60
55517;BME280;41724;51.176;-0.708;2023-03-15T04:12:59;101165.30;;;3.55;54.51
55517;BME280;41724;51.176;-0.708;2023-03-15T04:15:26;101169.68;;;3.40;54.69
55517;BME280;41724;51.176;-0.708;2023-03-15T04:17:54;101170.77;;;3.74;55.13
55517;BME280;41724;51.176;-0.708;2023-03-15T04:20:22;101166.39;;;3.21;55.14
55517;BME280;41724;51.176;-0.708;2023-03-15T04:22:49;101157.60;;;3.60;55.30
55517;BME280;41724;51.176;-0.708;2023-03-15T04:25:17;101161.77;;;3.50;55.12
55517;BME280;41724;51.176;-0.708;2023-03-15T04:27:45;101174.49;;;3.65;54.91
55517;BME280;41724;51.176;-0.708;2023-03-15T04:30:13;101183.27;;;2.74;56.60
55517;BME280;41724;51.176;-0.708;2023-03-15T04:32:40;101174.66;;;2.94;56.52
55517;BME280;41724;51.176;-0.708;2023-03-15T04:35:08;101165.19;;;3.25;56.17
55517;BME280;41724;51.176;-0.708;2023-03-15T04:37:35;101161.85;;;3.46;55.17
55517;BME280;41724;51.176;-0.708;2023-03-15T04:40:02;101169.54;;;3.45;54.67
55517;BME280;41724;51.176;-0.708;2023-03-15T04:42:29;101173.39;;;3.57;55.12
55517;BME280;41724;51.176;-0.708;2023-03-15T04:44:57;101174.14;;;3.08;54.91
55517;BME280;41724;51.176;-0.708;2023-03-15T04:47:24;101173.16;;;3.66;54.68
55517;BME280;41724;51.176;-0.708;2023-03-15T04:49:52;101179.69;;;3.65;54.37
55517;BME280;41724;51.176;-0.708;2023-03-15T04:52:19;101186.31;;;3.20;54.52
55517;BME280;41724;51.176;-0.708;2023-03-15T04:54:46;101190.46;;;3.36;54.07
55517;BME280;41724;51.176;-0.708;2023-03-15T04:57:14;101192.56;;;3.67;54.33
55517;BME280;41724;51.176;-0.708;2023-03-15T04:59:41;101195.82;;;3.69;53.84
55517;BME280;41724;51.176;-0.708;2023-03-15T05:02:09;101199.48;;;3.44;53.96
55517;BME280;41724;51.176;-0.708;2023-03-15T05:04:36;101195.32;;;3.02;54.65
55517;BME280;41724;51.176;-0.708;2023-03-15T05:07:03;101189.96;;;2.96;54.16
55517;BME280;41724;51.176;-0.708;2023-03-15T05:09:31;101192.16;;;3.46;54.28
55517;BME280;41724;51.176;-0.708;2023-03-15T05:11:58;101193.47;;;3.50;54.13
55517;BME280;41724;51.176;-0.708;2023-03-15T05:14:25;101193.19;;;3.05;53.94
55517;BME280;41724;51.176;-0.708;2023-03-15T05:16:53;101193.81;;;3.34;54.06
55517;BME280;41724;51.176;-0.708;2023-03-15T05:19:20;101188.11;;;3.25;54.66
55517;BME280;41724;51.176;-0.708;2023-03-15T05:21:48;101179.39;;;3.00;54.90
55517;BME280;41724;51.176;-0.708;2023-03-15T05:24:15;101175.31;;;3.04;54.55
55517;BME280;41724;51.176;-0.708;2023-03-15T05:26:42;101178.94;;;2.97;54.30
55517;BME280;41724;51.176;-0.708;2023-03-15T05:29:10;101188.09;;;2.92;54.03
55517;BME280;41724;51.176;-0.708;2023-03-15T05:31:37;101192.54;;;3.01;53.94
55517;BME280;41724;51.176;-0.708;2023-03-15T05:34:05;101191.02;;;3.10;54.05
55517;BME280;41724;51.176;-0.708;2023-03-15T05:36:33;101189.03;;;3.14;54.06
55517;BME280;41724;51.176;-0.708;2023-03-15T05:39:00;101193.68;;;3.13;54.01
55517;BME280;41724;51.176;-0.708;2023-03-15T05:41:28;101202.25;;;3.20;53.94
55517;BME280;41724;51.176;-0.708;2023-03-15T05:43:55;101197.32;;;3.34;53.73
55517;BME280;41724;51.176;-0.708;2023-03-15T05:46:23;101197.26;;;3.20;53.99
55517;BME280;41724;51.176;-0.708;2023-03-15T05:48:50;101201.29;;;3.42;53.87
55517;BME280;41724;51.176;-0.708;2023-03-15T05:51:17;101210.81;;;2.97;54.57
55517;BME280;41724;51.176;-0.708;2023-03-15T05:53:44;101214.48;;;2.71;54.51
55517;BME280;41724;51.176;-0.708;2023-03-15T05:56:12;101211.09;;;3.08;54.35
55517;BME280;41724;51.176;-0.708;2023-03-15T05:58:39;101212.96;;;3.05;54.00
55517;BME280;41724;51.176;-0.708;2023-03-15T06:01:06;101219.55;;;3.18;53.65
55517;BME280;41724;51.176;-0.708;2023-03-15T06:03:33;101218.21;;;3.03;53.64
55517;BME280;41724;51.176;-0.708;2023-03-15T06:06:01;101212.75;;;2.95;53.43
55517;BME280;41724;51.176;-0.708;2023-03-15T06:08:28;101214.10;;;3.20;53.22
55517;BME280;41724;51.176;-0.708;2023-03-15T06:10:55;101220.00;;;3.07;53.70
55517;BME280;41724;51.176;-0.708;2023-03-15T06:13:22;101232.63;;;3.26;53.35
55517;BME280;41724;51.176;-0.708;2023-03-15T06:15:50;101236.99;;;2.88;53.40
55517;BME280;41724;51.176;-0.708;2023-03-15T06:18:17;101235.82;;;3.05;53.13
55517;BME280;41724;51.176;-0.708;2023-03-15T06:20:44;101240.86;;;2.93;52.75
55517;BME280;41724;51.176;-0.708;2023-03-15T06:23:11;101241.67;;;2.85;53.47
55517;BME280;41724;51.176;-0.708;2023-03-15T06:25:38;101244.86;;;3.00;53.56
55517;BME280;41724;51.176;-0.708;2023-03-15T06:28:06;101246.62;;;3.24;53.56
55517;BME280;41724;51.176;-0.708;2023-03-15T06:30:34;101246.04;;;2.93;53.57
55517;BME280;41724;51.176;-0.708;2023-03-15T06:33:02;101247.77;;;2.87;54.07
55517;BME280;41724;51.176;-0.708;2023-03-15T06:35:29;101243.91;;;3.06;53.69
55517;BME280;41724;51.176;-0.708;2023-03-15T06:37:56;101242.01;;;2.65;54.23
55517;BME280;41724;51.176;-0.708;2023-03-15T06:40:24;101242.73;;;2.85;54.27
55517;BME280;41724;51.176;-0.708;2023-03-15T06:42:51;101251.75;;;2.90;54.35
55517;BME280;41724;51.176;-0.708;2023-03-15T06:45:18;101256.44;;;3.00;54.23
55517;BME280;41724;51.176;-0.708;2023-03-15T06:47:46;101261.50;;;3.23;53.61
55517;BME280;41724;51.176;-0.708;2023-03-15T06:50:13;101261.09;;;3.48;53.33
55517;BME280;41724;51.176;-0.708;2023-03-15T06:52:40;101256.05;;;3.66;53.36
55517;BME280;41724;51.176;-0.708;2023-03-15T06:55:08;101254.70;;;3.90;52.94
55517;BME280;41724;51.176;-0.708;2023-03-15T06:57:35;101258.67;;;3.71;53.52
55517;BME280;41724;51.176;-0.708;2023-03-15T07:00:03;101262.21;;;3.57;53.59
55517;BME280;41724;51.176;-0.708;2023-03-15T07:02:31;101263.22;;;3.89;53.38
55517;BME280;41724;51.176;-0.708;2023-03-15T07:04:58;101269.13;;;3.96;52.84
55517;BME280;41724;51.176;-0.708;2023-03-15T07:07:26;101269.56;;;3.66;52.97
55517;BME280;41724;51.176;-0.708;2023-03-15T07:09:52;101271.76;;;4.17;53.10
55517;BME280;41724;51.176;-0.708;2023-03-15T07:12:19;101272.56;;;3.96;53.07
55517;BME280;41724;51.176;-0.708;2023-03-15T07:14:47;101273.08;;;3.82;52.87
55517;BME280;41724;51.176;-0.708;2023-03-15T07:17:14;101277.38;;;3.81;53.15
55517;BME280;41724;51.176;-0.708;2023-03-15T07:19:41;101282.28;;;4.04;53.01
55517;BME280;41724;51.176;-0.708;2023-03-15T07:22:09;101284.14;;;4.13;52.98
55517;BME280;41724;51.176;-0.708;2023-03-15T07:24:36;101280.44;;;4.15;53.09
55517;BME280;41724;51.176;-0.708;2023-03-15T07:27:04;101277.95;;;4.27;53.22
55517;BME280;41724;51.176;-0.708;2023-03-15T07:29:31;101282.10;;;4.26;53.19
55517;BME280;41724;51.176;-0.708;2023-03-15T07:31:58;101285.95;;;4.43;52.92
55517;BME280;41724;51.176;-0.708;2023-03-15T07:34:25;101288.65;;;4.46;53.12
55517;BME280;41724;51.176;-0.708;2023-03-15T07:36:53;101293.71;;;4.46;53.51
55517;BME280;41724;51.176;-0.708;2023-03-15T07:39:20;101299.08;;;4.39;53.75
55517;BME280;41724;51.176;-0.708;2023-03-15T07:41:47;101297.88;;;4.41;53.95
55517;BME280;41724;51.176;-0.708;2023-03-15T07:44:15;101296.67;;;4.58;54.04
55517;BME280;41724;51.176;-0.708;2023-03-15T07:46:42;101297.83;;;4.74;53.92
55517;BME280;41724;51.176;-0.708;2023-03-15T07:49:09;101296.59;;;4.69;53.44
55517;BME280;41724;51.176;-0.708;2023-03-15T07:51:36;101291.15;;;4.61;53.93
55517;BME280;41724;51.176;-0.708;2023-03-15T07:54:03;101287.39;;;5.07;53.97
55517;BME280;41724;51.176;-0.708;2023-03-15T07:56:31;101289.94;;;5.09;53.60
55517;BME280;41724;51.176;-0.708;2023-03-15T07:58:58;101296.90;;;5.05;53.56
55517;BME280;41724;51.176;-0.708;2023-03-15T08:01:26;101297.58;;;5.04;54.54
55517;BME280;41724;51.176;-0.708;2023-03-15T08:03:53;101298.91;;;5.19;54.97
55517;BME280;41724;51.176;-0.708;2023-03-15T08:06:20;101298.85;;;5.16;54.22
55517;BME280;41724;51.176;-0.708;2023-03-15T08:08:48;101301.56;;;5.35;54.18
55517;BME280;41724;51.176;-0.708;2023-03-15T08:11:15;101300.37;;;5.41;53.80
55517;BME280;41724;51.176;-0.708;2023-03-15T08:13:42;101297.84;;;5.71;53.35
55517;BME280;41724;51.176;-0.708;2023-03-15T08:16:10;101295.96;;;5.68;53.43
55517;BME280;41724;51.176;-0.708;2023-03-15T08:18:37;101295.99;;;6.05;53.42
55517;BME280;41724;51.176;-0.708;2023-03-15T08:21:04;101293.12;;;6.04;53.41
55517;BME280;41724;51.176;-0.708;2023-03-15T08:23:32;101291.43;;;6.54;52.60
55517;BME280;41724;51.176;-0.708;2023-03-15T08:25:59;101290.30;;;6.67;52.58
55517;BME280;41724;51.176;-0.708;2023-03-15T08:28:26;101293.39;;;6.43;53.68
55517;BME280;41724;51.176;-0.708;2023-03-15T08:30:54;101291.13;;;6.44;53.55
55517;BME280;41724;51.176;-0.708;2023-03-15T08:33:21;101283.56;;;6.63;53.62
55517;BME280;41724;51.176;-0.708;2023-03-15T08:35:51;101290.62;;;6.34;54.33
55517;BME280;41724;51.176;-0.708;2023-03-15T08:38:18;101295.99;;;6.17;54.20
55517;BME280;41724;51.176;-0.708;2023-03-15T08:40:45;101289.49;;;6.34;53.86
55517;BME280;41724;51.176;-0.708;2023-03-15T08:43:12;101293.93;;;6.26;54.83
55517;BME280;41724;51.176;-0.708;2023-03-15T08:45:40;101292.34;;;6.31;54.79
55517;BME280;41724;51.176;-0.708;2023-03-15T08:48:07;101292.29;;;6.79;54.80
55517;BME280;41724;51.176;-0.708;2023-03-15T08:50:35;101295.26;;;5.94;56.06
55517;BME280;41724;51.176;-0.708;2023-03-15T08:53:02;101296.57;;;6.35;56.28
55517;BME280;41724;51.176;-0.708;2023-03-15T08:55:29;101287.52;;;7.06;56.03
55517;BME280;41724;51.176;-0.708;2023-03-15T08:57:56;101282.57;;;7.24;55.29
55517;BME280;41724;51.176;-0.708;2023-03-15T09:00:24;101282.30;;;7.40;55.10
55517;BME280;41724;51.176;-0.708;2023-03-15T09:02:51;101279.45;;;7.79;54.48
55517;BME280;41724;51.176;-0.708;2023-03-15T09:05:19;101280.34;;;7.47;55.42
55517;BME280;41724;51.176;-0.708;2023-03-15T09:07:47;101268.98;;;8.31;54.78
55517;BME280;41724;51.176;-0.708;2023-03-15T09:10:16;101271.53;;;8.58;54.97
55517;BME280;41724;51.176;-0.708;2023-03-15T09:12:45;101275.21;;;8.61;54.30
55517;BME280;41724;51.176;-0.708;2023-03-15T09:15:12;101273.36;;;9.01;54.17
55517;BME280;41724;51.176;-0.708;2023-03-15T09:17:40;101273.19;;;8.53;54.63
55517;BME280;41724;51.176;-0.708;2023-03-15T09:20:09;101275.42;;;8.77;54.36
55517;BME280;41724;51.176;-0.708;2023-03-15T09:22:36;101273.71;;;9.78;54.50
55517;BME280;41724;51.176;-0.708;2023-03-15T09:25:04;101268.11;;;9.50;53.63
55517;BME280;41724;51.176;-0.708;2023-03-15T09:27:32;101269.46;;;9.56;53.97
55517;BME280;41724;51.176;-0.708;2023-03-15T09:29:59;101271.87;;;9.82;52.02
55517;BME280;41724;51.176;-0.708;2023-03-15T09:32:26;101277.13;;;10.04;50.80
55517;BME280;41724;51.176;-0.708;2023-03-15T09:34:53;101280.58;;;9.77;49.46
55517;BME280;41724;51.176;-0.708;2023-03-15T09:37:20;101281.37;;;10.07;47.77
55517;BME280;41724;51.176;-0.708;2023-03-15T09:39:48;101283.73;;;10.17;47.33
55517;BME280;41724;51.176;-0.708;2023-03-15T09:42:19;101282.91;;;10.73;47.89
55517;BME280;41724;51.176;-0.708;2023-03-15T09:44:50;101287.59;;;10.06;47.06
55517;BME280;41724;51.176;-0.708;2023-03-15T09:47:30;101282.00;;;9.34;47.57
55517;BME280;41724;51.176;-0.708;2023-03-15T09:50:05;101282.46;;;8.27;50.23
55517;BME280;41724;51.176;-0.708;2023-03-15T09:52:38;101284.10;;;9.64;48.38
55517;BME280;41724;51.176;-0.708;2023-03-15T09:55:12;101293.15;;;10.13;48.64
55517;BME280;41724;51.176;-0.708;2023-03-15T09:57:45;101291.95;;;9.47;48.49
55517;BME280;41724;51.176;-0.708;2023-03-15T10:00:20;101296.31;;;10.20;46.43
55517;BME280;41724;51.176;-0.708;2023-03-15T10:02:55;101294.97;;;9.57;46.23
55517;BME280;41724;51.176;-0.708;2023-03-15T10:05:27;101295.93;;;9.91;47.78
55517;BME280;41724;51.176;-0.708;2023-03-15T10:07:57;101301.62;;;9.94;46.47
55517;BME280;41724;51.176;-0.708;2023-03-15T10:10:32;101294.83;;;9.33;46.89
55517;BME280;41724;51.176;-0.708;2023-03-15T10:13:09;101301.43;;;10.28;46.80
55517;BME280;41724;51.176;-0.708;2023-03-15T10:15:47;101296.81;;;10.43;46.56
55517;BME280;41724;51.176;-0.708;2023-03-15T10:18:28;101294.87;;;11.10;45.58
55517;BME280;41724;51.176;-0.708;2023-03-15T10:21:02;101294.13;;;11.08;44.92
55517;BME280;41724;51.176;-0.708;2023-03-15T10:23:37;101300.86;;;11.08;44.41
55517;BME280;41724;51.176;-0.708;2023-03-15T10:26:08;101301.60;;;9.90;45.64
55517;BME280;41724;51.176;-0.708;2023-03-15T10:28:38;101299.82;;;9.93;47.29
55517;BME280;41724;51.176;-0.708;2023-03-15T10:31:12;101301.12;;;10.76;45.91
55517;BME280;41724;51.176;-0.708;2023-03-15T10:33:40;101303.61;;;10.50;45.15
55517;BME280;41724;51.176;-0.708;2023-03-15T10:36:14;101304.88;;;10.93;45.08
55517;BME280;41724;51.176;-0.708;2023-03-15T10:38:42;101307.60;;;10.46;45.68
55517;BME280;41724;51.176;-0.708;2023-03-15T10:41:10;101310.27;;;10.27;46.85
55517;BME280;41724;51.176;-0.708;2023-03-15T10:43:39;101308.22;;;10.42;46.74
55517;BME280;41724;51.176;-0.708;2023-03-15T10:46:09;101306.63;;;10.75;46.33
55517;BME280;41724;51.176;-0.708;2023-03-15T10:48:38;101305.00;;;11.04;46.54
55517;BME280;41724;51.176;-0.708;2023-03-15T10:51:12;101305.37;;;10.97;45.23
55517;BME280;41724;51.176;-0.708;2023-03-15T10:53:52;101299.63;;;10.66;45.11
55517;BME280;41724;51.176;-0.708;2023-03-15T10:56:22;101301.81;;;10.65;45.89
55517;BME280;41724;51.176;-0.708;2023-03-15T10:58:51;101300.21;;;11.40;44.74
55517;BME280;41724;51.176;-0.708;2023-03-15T11:01:24;101298.01;;;11.71;43.80
55517;BME280;41724;51.176;-0.708;2023-03-15T11:04:01;101294.23;;;11.69;44.41
55517;BME280;41724;51.176;-0.708;2023-03-15T11:06:40;101297.63;;;10.71;40.76
55517;BME280;41724;51.176;-0.708;2023-03-15T11:09:10;101297.77;;;10.71;43.87
55517;BME280;41724;51.176;-0.708;2023-03-15T11:11:56;101291.33;;;10.76;43.97
55517;BME280;41724;51.176;-0.708;2023-03-15T11:14:25;101286.24;;;11.37;42.37
55517;BME280;41724;51.176;-0.708;2023-03-15T11:16:54;101286.03;;;11.04;43.38
55517;BME280;41724;51.176;-0.708;2023-03-15T11:19:25;101282.41;;;11.97;42.70
55517;BME280;41724;51.176;-0.708;2023-03-15T11:21:53;101283.17;;;11.12;42.13
55517;BME280;41724;51.176;-0.708;2023-03-15T11:24:25;101278.90;;;11.97;41.17
55517;BME280;41724;51.176;-0.708;2023-03-15T11:26:54;101288.68;;;9.78;45.37
55517;BME280;41724;51.176;-0.708;2023-03-15T11:29:24;101274.10;;;11.70;43.88
55517;BME280;41724;51.176;-0.708;2023-03-15T11:31:52;101277.29;;;11.66;43.76
55517;BME280;41724;51.176;-0.708;2023-03-15T11:34:37;101268.74;;;11.48;40.88
55517;BME280;41724;51.176;-0.708;2023-03-15T11:37:14;101266.39;;;11.79;42.30
55517;BME280;41724;51.176;-0.708;2023-03-15T11:39:47;101270.63;;;11.99;40.15
55517;BME280;41724;51.176;-0.708;2023-03-15T11:42:21;101266.59;;;12.13;41.14
55517;BME280;41724;51.176;-0.708;2023-03-15T11:44:54;101258.91;;;12.24;41.08
55517;BME280;41724;51.176;-0.708;2023-03-15T11:47:31;101256.81;;;12.71;41.07
55517;BME280;41724;51.176;-0.708;2023-03-15T11:50:00;101258.41;;;12.34;39.83
55517;BME280;41724;51.176;-0.708;2023-03-15T11:52:28;101261.98;;;11.20;39.76
55517;BME280;41724;51.176;-0.708;2023-03-15T11:54:58;101263.39;;;12.46;38.58
55517;BME280;41724;51.176;-0.708;2023-03-15T11:57:43;101258.88;;;12.56;38.46
55517;BME280;41724;51.176;-0.708;2023-03-15T12:00:52;101257.21;;;12.07;38.16
55517;BME280;41724;51.176;-0.708;2023-03-15T12:03:30;101256.03;;;12.40;39.02
55517;BME280;41724;51.176;-0.708;2023-03-15T12:06:03;101259.69;;;10.82;39.82
55517;BME280;41724;51.176;-0.708;2023-03-15T12:08:42;101258.60;;;11.94;39.17
55517;BME280;41724;51.176;-0.708;2023-03-15T12:11:10;101253.66;;;12.72;40.34
55517;BME280;41724;51.176;-0.708;2023-03-15T12:13:52;101248.36;;;12.70;39.84
55517;BME280;41724;51.176;-0.708;2023-03-15T12:16:21;101245.19;;;11.36;41.84
55517;BME280;41724;51.176;-0.708;2023-03-15T12:18:48;101249.39;;;11.53;41.45
55517;BME280;41724;51.176;-0.708;2023-03-15T12:21:20;101242.80;;;10.78;43.19
55517;BME280;41724;51.176;-0.708;2023-03-15T12:23:57;101241.58;;;10.29;44.00
55517;BME280;41724;51.176;-0.708;2023-03-15T12:26:34;101248.54;;;10.16;44.53
55517;BME280;41724;51.176;-0.708;2023-03-15T12:29:11;101248.77;;;9.74;44.89
55517;BME280;41724;51.176;-0.708;2023-03-15T12:31:48;101247.99;;;9.95;44.83
55517;BME280;41724;51.176;-0.708;2023-03-15T12:34:24;101243.79;;;8.89;47.09
55517;BME280;41724;51.176;-0.708;2023-03-15T12:36:55;101232.18;;;10.47;45.28
55517;BME280;41724;51.176;-0.708;2023-03-15T12:39:39;101221.57;;;10.89;44.55
55517;BME280;41724;51.176;-0.708;2023-03-15T12:42:13;101218.47;;;10.79;45.73
55517;BME280;41724;51.176;-0.708;2023-03-15T12:44:41;101220.62;;;8.83;50.68
55517;BME280;41724;51.176;-0.708;2023-03-15T12:47:09;101211.17;;;10.34;47.89
55517;BME280;41724;51.176;-0.708;2023-03-15T12:49:39;101214.23;;;10.18;48.33
55517;BME280;41724;51.176;-0.708;2023-03-15T12:52:27;101214.12;;;10.56;47.80
55517;BME280;41724;51.176;-0.708;2023-03-15T12:55:03;101210.78;;;11.01;46.89
55517;BME280;41724;51.176;-0.708;2023-03-15T12:57:38;101211.10;;;10.52;47.68